Time;durP1;ratioP1;P1;durP2;ratioP2;P2;SDS_P1;SDS_P2;PMS_P1;PMS_P2;Temp;Humidity;BMP_temperature;BMP_pressure;BME280_temperature;BME280_humidity;BME280_pressure;Samples;Min_cycle;Max_cycle;Signal;HPM_P1;HPM_P2
2021/12/09 00:01:38;;;;;;;25.85;12.98;;;4.00;99.90;;;;;;5031041;28;20207;-85
2021/12/09 00:04:06;;;;;;;19.80;10.25;;;4.00;99.90;;;;;;5030736;28;20208;-83
2021/12/09 00:06:34;;;;;;;20.73;12.57;;;4.00;99.90;;;;;;5048952;28;20288;-83
2021/12/09 00:09:04;;;;;;;27.50;11.93;;;4.00;99.90;;;;;;5048115;28;20653;-81
2021/12/09 00:11:30;;;;;;;22.90;10.18;;;3.90;99.90;;;;;;5045908;28;20185;-82
2021/12/09 00:13:56;;;;;;;15.30;9.27;;;3.90;99.90;;;;;;5032593;28;20250;-84
2021/12/09 00:16:22;;;;;;;17.00;6.75;;;3.80;99.90;;;;;;5031005;28;20459;-84
2021/12/09 00:18:48;;;;;;;9.90;6.40;;;3.80;99.90;;;;;;5029540;28;20184;-83
2021/12/09 00:21:14;;;;;;;12.23;5.10;;;3.80;99.90;;;;;;5046623;28;20485;-85
2021/12/09 00:23:39;;;;;;;10.87;4.70;;;3.70;99.90;;;;;;5023417;28;20201;-85
2021/12/09 00:26:05;;;;;;;15.63;4.33;;;3.70;99.90;;;;;;5047147;28;20649;-86
2021/12/09 00:28:31;;;;;;;7.83;5.03;;;3.70;99.90;;;;;;5031404;28;20534;-83
2021/12/09 00:30:56;;;;;;;10.20;5.97;;;3.70;99.90;;;;;;5029216;28;20173;-81
2021/12/09 00:33:22;;;;;;;9.60;4.93;;;3.80;99.90;;;;;;5046046;28;20204;-83
2021/12/09 00:35:55;;;;;;;12.33;5.07;;;3.90;99.90;;;;;;5043115;28;20206;-83
2021/12/09 00:38:33;;;;;;;8.88;3.60;;;3.90;99.90;;;;;;5028755;28;20177;-84
2021/12/09 00:40:59;;;;;;;7.40;4.60;;;3.90;99.90;;;;;;5040993;28;20186;-82
2021/12/09 00:43:25;;;;;;;8.65;6.70;;;3.90;99.90;;;;;;5044020;28;20270;-85
2021/12/09 00:45:52;;;;;;;8.63;5.80;;;3.80;99.90;;;;;;5028314;28;20217;-83
2021/12/09 00:48:18;;;;;;;11.40;5.50;;;3.80;99.90;;;;;;5044605;28;20169;-84
2021/12/09 00:50:43;;;;;;;13.73;6.63;;;3.70;99.90;;;;;;5027214;28;20185;-85
2021/12/09 00:53:09;;;;;;;16.80;8.17;;;3.70;99.90;;;;;;5030446;28;20451;-84
2021/12/09 00:55:35;;;;;;;24.77;9.27;;;3.70;99.90;;;;;;5030072;28;20256;-85
2021/12/09 00:58:01;;;;;;;21.60;9.80;;;3.80;99.90;;;;;;5024002;28;20436;-83
2021/12/09 01:00:28;;;;;;;16.77;9.47;;;3.80;99.90;;;;;;5045049;28;20365;-83
2021/12/09 01:02:54;;;;;;;24.27;10.75;;;3.80;99.90;;;;;;5028805;28;20446;-83
2021/12/09 01:05:20;;;;;;;18.93;10.57;;;3.80;99.90;;;;;;5028128;28;20196;-85
2021/12/09 01:07:45;;;;;;;22.43;10.77;;;3.80;99.90;;;;;;5027846;28;20185;-84
2021/12/09 01:10:13;;;;;;;22.33;11.33;;;3.80;99.90;;;;;;5048013;28;20203;-80
2021/12/09 01:12:39;;;;;;;25.73;11.90;;;3.80;99.90;;;;;;5046446;28;20181;-83
2021/12/09 01:15:07;;;;;;;23.80;9.77;;;3.80;99.90;;;;;;5031925;28;20258;-84
2021/12/09 01:17:33;;;;;;;14.23;10.27;;;3.80;99.90;;;;;;5016707;28;20661;-85
2021/12/09 01:19:59;;;;;;;32.50;10.10;;;3.80;99.90;;;;;;5024724;28;20192;-83
2021/12/09 01:22:33;;;;;;;23.67;11.02;;;3.80;99.90;;;;;;5044051;28;20435;-82
2021/12/09 01:24:59;;;;;;;27.80;12.05;;;3.80;99.90;;;;;;5045836;28;20272;-85
2021/12/09 01:27:26;;;;;;;28.73;11.80;;;3.80;99.90;;;;;;5046422;28;20267;-85
2021/12/09 01:29:54;;;;;;;31.83;12.35;;;3.80;99.90;;;;;;5029632;28;20522;-86
2021/12/09 01:32:27;;;;;;;31.80;12.10;;;3.70;99.90;;;;;;5046366;28;20236;-84
2021/12/09 01:34:53;;;;;;;26.17;14.30;;;5.00;99.90;;;;;;5043577;28;20197;-81
2021/12/09 01:37:19;;;;;;;28.50;13.73;;;3.70;99.90;;;;;;5018696;28;20778;-82
2021/12/09 01:39:44;;;;;;;20.63;11.57;;;3.70;99.90;;;;;;5036451;28;20629;-84
2021/12/09 01:42:10;;;;;;;33.70;13.80;;;3.70;99.90;;;;;;5047330;28;20289;-84
2021/12/09 01:44:36;;;;;;;26.77;12.97;;;3.70;99.90;;;;;;5027265;28;20200;-85
2021/12/09 01:47:01;;;;;;;32.47;14.73;;;3.70;99.90;;;;;;5020768;28;20207;-84
2021/12/09 01:49:27;;;;;;;26.93;13.33;;;3.70;99.90;;;;;;5028276;28;20220;-85
2021/12/09 01:51:53;;;;;;;29.43;13.97;;;;;;;;;;5024533;28;20455;-85
2021/12/09 01:54:22;;;;;;;35.38;14.45;;;3.70;99.90;;;;;;5038680;28;20692;-83
2021/12/09 01:56:48;;;;;;;25.13;14.55;;;3.60;99.90;;;;;;5023242;28;20211;-84
2021/12/09 01:59:14;;;;;;;22.47;13.30;;;3.60;99.90;;;;;;5025380;28;20189;-85
2021/12/09 02:01:39;;;;;;;17.73;10.13;;;3.60;99.90;;;;;;5037252;28;20549;-83
2021/12/09 02:04:08;;;;;;;29.53;11.30;;;3.60;99.90;;;;;;5042183;28;20733;-86
2021/12/09 02:06:35;;;;;;;26.25;13.23;;;3.60;99.90;;;;;;5022758;28;20242;-85
2021/12/09 02:09:01;;;;;;;28.08;12.50;;;3.60;99.90;;;;;;5046877;28;20198;-84
2021/12/09 02:11:26;;;;;;;24.42;13.68;;;3.50;99.90;;;;;;5029601;28;20629;-83
2021/12/09 02:13:56;;;;;;;12.90;8.43;;;3.50;99.90;;;;;;5024147;28;20288;-81
2021/12/09 02:16:21;;;;;;;23.80;13.45;;;3.50;99.90;;;;;;5040412;28;20197;-84
2021/12/09 02:18:48;;;;;;;25.43;12.63;;;3.50;99.90;;;;;;5041183;28;20177;-84
2021/12/09 02:21:17;;;;;;;29.30;13.32;;;3.40;99.90;;;;;;5043551;28;20203;-86
2021/12/09 02:23:47;;;;;;;24.35;12.15;;;3.40;99.90;;;;;;5044657;28;20203;-84
2021/12/09 02:26:14;;;;;;;23.88;12.38;;;3.40;99.90;;;;;;5028552;28;20250;-85
2021/12/09 02:28:40;;;;;;;34.15;13.43;;;3.40;99.90;;;;;;5043685;28;20239;-84
2021/12/09 02:31:06;;;;;;;23.83;13.10;;;3.40;99.90;;;;;;5045969;28;20235;-85
2021/12/09 02:33:32;;;;;;;21.77;10.40;;;3.40;99.90;;;;;;5022095;28;20692;-85
2021/12/09 02:35:57;;;;;;;19.27;10.70;;;3.40;99.90;;;;;;5040004;28;20212;-84
2021/12/09 02:38:23;;;;;;;24.43;11.03;;;3.40;99.90;;;;;;5017555;28;20553;-83
2021/12/09 02:40:49;;;;;;;27.47;11.97;;;3.40;99.90;;;;;;5044179;28;20628;-83
2021/12/09 02:43:22;;;;;;;20.55;10.07;;;3.40;99.90;;;;;;5028499;28;20232;-81
2021/12/09 02:45:52;;;;;;;24.60;10.02;;;3.40;99.90;;;;;;5043464;28;20196;-84
2021/12/09 02:48:19;;;;;;;25.75;10.88;;;3.40;99.90;;;;;;5034290;28;20197;-81
2021/12/09 02:50:45;;;;;;;21.70;11.13;;;3.40;99.90;;;;;;5042938;28;20196;-83
2021/12/09 02:53:11;;;;;;;27.52;10.25;;;3.40;99.90;;;;;;5022451;28;20208;-86
2021/12/09 02:55:37;;;;;;;23.77;10.07;;;3.40;99.90;;;;;;5024292;28;20258;-83
2021/12/09 02:58:03;;;;;;;27.17;11.20;;;5.20;99.90;;;;;;5046403;28;20498;-84
2021/12/09 03:00:30;;;;;;;27.33;10.10;;;3.40;99.90;;;;;;5044056;28;20446;-87
2021/12/09 03:02:57;;;;;;;15.90;7.40;;;3.40;99.90;;;;;;5034933;28;22985;-85
2021/12/09 03:05:25;;;;;;;15.57;7.75;;;3.40;99.90;;;;;;5036421;28;20177;-85
2021/12/09 03:07:50;;;;;;;17.02;7.57;;;3.40;99.90;;;;;;5038563;28;20192;-86
2021/12/09 03:10:23;;;;;;;10.00;5.63;;;3.40;99.90;;;;;;5045963;28;20199;-83
2021/12/09 03:12:52;;;;;;;22.42;8.10;;;3.40;99.90;;;;;;5032047;28;20207;-85
2021/12/09 03:15:18;;;;;;;21.35;7.65;;;3.40;99.90;;;;;;5032643;28;20204;-87
2021/12/09 03:17:47;;;;;;;13.40;6.87;;;;;;;;;;5028373;28;20219;-84
2021/12/09 03:20:14;;;;;;;17.02;8.07;;;3.30;99.90;;;;;;5047965;28;20243;-83
2021/12/09 03:22:41;;;;;;;14.38;7.40;;;3.30;99.90;;;;;;5030927;28;20177;-83
2021/12/09 03:25:11;;;;;;;23.48;7.75;;;3.30;99.90;;;;;;5028594;28;20195;-83
2021/12/09 03:27:37;;;;;;;21.73;8.65;;;3.30;99.90;;;;;;5046831;28;20212;-85
2021/12/09 03:30:05;;;;;;;25.88;8.38;;;3.30;99.90;;;;;;5039956;28;20195;-84
2021/12/09 03:32:31;;;;;;;13.23;7.07;;;3.30;99.90;;;;;;5028020;28;20280;-83
2021/12/09 03:34:56;;;;;;;7.90;6.20;;;3.30;99.90;;;;;;5045237;28;20299;-84
2021/12/09 03:37:24;;;;;;;17.50;6.47;;;3.30;99.90;;;;;;5026387;28;20600;-83
2021/12/09 03:39:51;;;;;;;15.32;6.60;;;3.30;99.90;;;;;;5030411;28;20188;-80
2021/12/09 03:42:21;;;;;;;13.35;5.50;;;3.30;99.90;;;;;;5027628;28;20204;-83
2021/12/09 03:44:48;;;;;;;13.98;5.88;;;3.30;99.90;;;;;;5027931;28;20297;-82
2021/12/09 03:47:17;;;;;;;14.75;4.78;;;3.30;99.90;;;;;;5025999;28;20182;-85
2021/12/09 03:49:43;;;;;;;11.20;5.53;;;3.30;99.90;;;;;;5038203;28;20177;-80
2021/12/09 03:52:11;;;;;;;10.70;4.93;;;3.30;99.90;;;;;;5037379;28;20188;-83
2021/12/09 03:54:37;;;;;;;10.80;4.68;;;3.30;99.90;;;;;;5020649;28;20505;-86
2021/12/09 03:57:04;;;;;;;13.35;5.10;;;3.30;99.90;;;;;;5028239;28;20214;-84
2021/12/09 03:59:30;;;;;;;17.63;5.53;;;3.30;99.90;;;;;;5017668;28;20238;-82
2021/12/09 04:01:56;;;;;;;13.63;5.33;;;3.20;99.90;;;;;;5023808;28;20173;-85
2021/12/09 04:04:22;;;;;;;8.60;5.60;;;3.20;99.90;;;;;;5026087;28;20451;-83
2021/12/09 04:06:47;;;;;;;11.03;3.30;;;3.10;99.90;;;;;;5040816;28;21667;-83
2021/12/09 04:09:18;;;;;;;19.10;7.07;;;3.00;99.90;;;;;;5037408;28;21756;-83
2021/12/09 04:11:44;;;;;;;15.68;5.60;;;3.00;99.90;;;;;;5042170;28;20467;-84
2021/12/09 04:14:09;;;;;;;10.23;4.67;;;2.90;99.90;;;;;;5027041;28;20235;-85
2021/12/09 04:16:36;;;;;;;14.33;5.40;;;2.90;99.90;;;;;;5024507;28;20536;-85
2021/12/09 04:19:03;;;;;;;8.60;5.03;;;2.80;99.90;;;;;;5022679;28;20266;-86
2021/12/09 04:21:29;;;;;;;12.63;6.03;;;2.80;99.90;;;;;;5044946;28;20181;-84
2021/12/09 04:23:55;;;;;;;10.93;6.20;;;2.80;99.90;;;;;;5027975;28;20707;-84
2021/12/09 04:26:21;;;;;;;9.50;4.30;;;2.80;99.90;;;;;;5025971;28;20951;-83
2021/12/09 04:28:46;;;;;;;16.87;5.77;;;2.70;99.90;;;;;;5044389;28;20724;-80
2021/12/09 04:31:14;;;;;;;9.50;4.47;;;;;;;;;;5041959;28;20423;-85
2021/12/09 04:33:42;;;;;;;21.95;6.80;;;2.70;99.90;;;;;;5016603;28;20486;-84
2021/12/09 04:36:08;;;;;;;18.42;6.57;;;2.60;99.90;;;;;;5046389;28;20228;-84
2021/12/09 04:38:33;;;;;;;13.02;4.72;;;2.60;99.90;;;;;;5041775;28;20181;-84
2021/12/09 04:40:59;;;;;;;10.60;3.40;;;2.50;99.90;;;;;;5044962;28;20188;-84
2021/12/09 04:43:24;;;;;;;12.13;4.63;;;2.50;99.90;;;;;;5041619;28;20291;-84
2021/12/09 04:45:50;;;;;;;11.40;4.67;;;2.50;99.90;;;;;;5043843;28;20192;-84
2021/12/09 04:48:16;;;;;;;13.93;5.93;;;2.50;99.90;;;;;;5028369;28;20661;-85
2021/12/09 04:50:42;;;;;;;21.67;9.90;;;2.40;99.90;;;;;;5024870;28;20439;-83
2021/12/09 04:53:10;;;;;;;15.82;7.15;;;2.30;99.90;;;;;;5018100;28;20290;-85
2021/12/09 04:55:35;;;;;;;28.08;8.30;;;2.20;99.90;;;;;;5044019;28;20710;-82
2021/12/09 04:58:01;;;;;;;8.40;5.20;;;2.20;99.90;;;;;;5020298;28;20268;-84
2021/12/09 05:00:29;;;;;;;12.13;5.10;;;2.20;99.90;;;;;;5018570;28;20185;-84
2021/12/09 05:03:07;;;;;;;17.92;6.68;;;2.10;99.90;;;;;;5039463;28;20181;-85
2021/12/09 05:05:40;;;;;;;27.38;10.35;;;2.10;99.90;;;;;;5040162;28;20669;-83
2021/12/09 05:08:09;;;;;;;19.25;7.93;;;2.10;99.90;;;;;;5017941;28;20194;-84
2021/12/09 05:10:50;;;;;;;14.77;6.45;;;2.20;99.90;;;;;;5027102;28;20199;-87
2021/12/09 05:13:17;;;;;;;11.93;5.18;;;2.20;99.90;;;;;;5031923;28;20196;-84
2021/12/09 05:15:43;;;;;;;12.73;5.18;;;2.20;99.90;;;;;;5068878;28;20197;-81
2021/12/09 05:18:09;;;;;;;7.73;4.27;;;2.10;99.90;;;;;;5067256;28;20192;-81
2021/12/09 05:20:34;;;;;;;11.43;7.37;;;;;;;;;;5034713;28;20455;-85
2021/12/09 05:23:00;;;;;;;9.13;5.63;;;2.10;99.90;;;;;;5029107;28;21448;-84
2021/12/09 05:25:26;;;;;;;7.97;5.60;;;;;;;;;;5025851;28;20557;-86
2021/12/09 05:27:53;;;;;;;11.23;6.80;;;;;;;;;;5040779;28;20181;-84
2021/12/09 05:30:24;;;;;;;14.13;7.25;;;;;;;;;;5040793;28;20514;-83
2021/12/09 05:32:50;;;;;;;7.53;4.18;;;2.20;99.90;;;;;;5024041;28;20177;-85
2021/12/09 05:35:18;;;;;;;20.38;4.55;;;2.10;99.90;;;;;;5031324;28;20217;-81
2021/12/09 05:37:44;;;;;;;10.50;5.65;;;2.20;99.90;;;;;;5037369;28;20264;-82
2021/12/09 05:40:12;;;;;;;9.05;6.80;;;2.20;99.90;;;;;;5017589;28;20188;-85
2021/12/09 05:42:38;;;;;;;11.68;6.28;;;2.20;99.90;;;;;;5038683;28;20652;-84
2021/12/09 05:45:05;;;;;;;22.00;7.40;;;2.10;99.90;;;;;;5020761;28;20271;-85
2021/12/09 05:47:31;;;;;;;8.18;6.75;;;2.10;99.90;;;;;;5039941;28;21214;-84
2021/12/09 05:49:57;;;;;;;13.43;9.05;;;2.10;99.90;;;;;;5020081;28;20174;-83
2021/12/09 05:52:23;;;;;;;24.58;11.20;;;;;;;;;;5025596;28;20435;-85
2021/12/09 05:54:48;;;;;;;17.07;11.40;;;2.10;99.90;;;;;;5015909;28;20204;-86
2021/12/09 05:57:14;;;;;;;16.63;8.50;;;2.20;99.90;;;;;;5019610;28;20451;-86
2021/12/09 05:59:41;;;;;;;15.98;9.80;;;2.20;99.90;;;;;;5015364;28;21227;-85
2021/12/09 06:02:08;;;;;;;16.27;10.32;;;2.20;99.90;;;;;;5016620;28;20182;-85
2021/12/09 06:04:35;;;;;;;12.82;9.48;;;2.20;99.90;;;;;;5015912;28;20204;-83
2021/12/09 06:07:01;;;;;;;14.18;10.00;;;2.20;99.90;;;;;;5017117;28;20189;-83
2021/12/09 06:09:26;;;;;;;12.63;8.73;;;2.20;99.90;;;;;;5033553;28;20189;-84
2021/12/09 06:11:53;;;;;;;16.43;8.53;;;2.20;99.90;;;;;;5033898;28;20195;-83
2021/12/09 06:14:18;;;;;;;21.95;9.48;;;2.20;99.90;;;;;;5021351;28;20212;-85
2021/12/09 06:16:45;;;;;;;9.13;6.37;;;2.20;99.90;;;;;;5025743;28;20212;-84
2021/12/09 06:19:11;;;;;;;13.00;8.00;;;2.20;99.90;;;;;;5022666;28;20263;-85
2021/12/09 06:21:37;;;;;;;16.17;8.77;;;2.20;99.90;;;;;;5016693;28;20173;-84
2021/12/09 06:24:03;;;;;;;19.63;7.97;;;1.60;99.90;;;;;;5041878;28;20203;-85
2021/12/09 06:26:31;;;;;;;15.43;8.07;;;2.20;99.90;;;;;;5031234;28;20247;-84
2021/12/09 06:28:56;;;;;;;16.27;6.68;;;2.20;99.90;;;;;;5019134;28;20205;-85
2021/12/09 06:31:23;;;;;;;11.23;6.33;;;;;;;;;;5022113;28;20212;-87
2021/12/09 06:33:49;;;;;;;18.83;8.90;;;2.20;99.90;;;;;;5028479;28;20555;-87
2021/12/09 06:36:15;;;;;;;19.85;8.55;;;2.30;99.90;;;;;;5042940;28;20205;-86
2021/12/09 06:38:41;;;;;;;18.13;7.10;;;2.30;99.90;;;;;;5040944;28;20185;-87
2021/12/09 06:41:08;;;;;;;20.60;8.97;;;2.30;99.90;;;;;;5027804;28;20182;-87
2021/12/09 06:43:37;;;;;;;16.65;8.30;;;2.30;99.90;;;;;;5029612;28;20217;-87
2021/12/09 06:46:05;;;;;;;23.83;9.60;;;2.30;99.90;;;;;;5039613;28;20944;-88
2021/12/09 06:48:31;;;;;;;16.30;9.15;;;2.30;99.90;;;;;;5035508;28;20185;-83
2021/12/09 06:50:57;;;;;;;16.42;8.18;;;2.30;99.90;;;;;;5045905;28;20238;-84
2021/12/09 06:53:22;;;;;;;15.27;7.13;;;2.30;99.90;;;;;;5034314;28;20208;-88
2021/12/09 06:55:48;;;;;;;15.00;9.77;;;2.30;99.90;;;;;;5030518;28;20220;-84
2021/12/09 06:58:13;;;;;;;14.87;7.90;;;2.40;99.90;;;;;;5029168;28;22280;-86
2021/12/09 07:00:43;;;;;;;19.03;9.60;;;2.40;99.90;;;;;;5025107;28;20214;-85
2021/12/09 07:03:10;;;;;;;22.92;9.25;;;2.50;99.90;;;;;;5043934;28;20596;-88
2021/12/09 07:05:36;;;;;;;30.10;8.45;;;2.40;99.90;;;;;;5029572;28;20598;-84
2021/12/09 07:08:02;;;;;;;22.47;9.20;;;2.50;99.90;;;;;;5040721;28;20269;-85
2021/12/09 07:10:28;;;;;;;18.23;9.10;;;2.50;99.90;;;;;;5025143;28;20208;-83
2021/12/09 07:12:54;;;;;;;14.80;8.00;;;;;;;;;;5043250;28;20435;-85
2021/12/09 07:15:20;;;;;;;19.38;8.50;;;2.60;99.90;;;;;;5027369;28;20197;-86
2021/12/09 07:17:47;;;;;;;17.88;9.75;;;2.60;99.90;;;;;;5012933;28;20191;-86
2021/12/09 07:20:17;;;;;;;19.25;10.45;;;2.50;99.90;;;;;;5037914;28;20185;-84
2021/12/09 07:22:45;;;;;;;20.38;9.40;;;2.60;99.90;;;;;;5020224;28;20199;-87
2021/12/09 07:25:11;;;;;;;18.70;8.07;;;2.60;99.90;;;;;;5018294;28;20185;-86
2021/12/09 07:27:36;;;;;;;19.87;10.47;;;2.60;99.90;;;;;;5038761;28;20756;-86
2021/12/09 07:30:06;;;;;;;13.13;8.80;;;2.60;99.90;;;;;;5043593;28;20177;-88
2021/12/09 07:32:32;;;;;;;14.60;10.23;;;2.60;99.90;;;;;;5014951;28;20227;-87
2021/12/09 07:34:59;;;;;;;20.57;9.30;;;2.60;99.90;;;;;;5038340;28;20243;-85
2021/12/09 07:37:24;;;;;;;18.50;10.63;;;2.70;99.90;;;;;;5015721;28;20439;-84
2021/12/09 07:39:50;;;;;;;18.37;10.17;;;;;;;;;;5023366;28;20196;-82
2021/12/09 07:42:17;;;;;;;16.40;6.53;;;2.70;99.90;;;;;;5037686;28;20807;-84
2021/12/09 07:44:43;;;;;;;14.95;10.20;;;2.70;99.90;;;;;;5020831;28;20458;-84
2021/12/09 07:47:09;;;;;;;11.83;8.07;;;2.70;99.90;;;;;;5017567;28;20177;-87
2021/12/09 07:49:34;;;;;;;20.83;9.70;;;2.70;99.90;;;;;;5036541;28;20189;-83
2021/12/09 07:52:00;;;;;;;17.10;9.57;;;2.70;99.90;;;;;;5014359;28;20177;-83
2021/12/09 07:54:26;;;;;;;13.93;8.97;;;;;;;;;;5037763;28;20537;-84
2021/12/09 07:56:52;;;;;;;14.97;7.10;;;2.80;99.90;;;;;;5031123;28;20296;-84
2021/12/09 07:59:18;;;;;;;14.30;7.93;;;2.80;99.90;;;;;;5019384;28;20830;-82
2021/12/09 08:01:45;;;;;;;22.97;8.47;;;2.80;99.90;;;;;;5014832;28;20181;-80
2021/12/09 08:04:11;;;;;;;15.93;8.27;;;2.80;99.90;;;;;;5013828;28;20954;-84
2021/12/09 08:06:37;;;;;;;18.00;9.70;;;3.00;99.90;;;;;;5034785;28;20189;-86
2021/12/09 08:09:04;;;;;;;22.00;10.02;;;2.90;99.90;;;;;;5023907;28;20266;-88
2021/12/09 08:11:30;;;;;;;15.65;9.02;;;2.90;99.90;;;;;;5021138;28;20200;-84
2021/12/09 08:13:56;;;;;;;20.50;8.40;;;;;;;;;;5039270;28;20212;-84
2021/12/09 08:16:23;;;;;;;13.18;7.95;;;3.00;99.90;;;;;;5020543;28;20220;-85
2021/12/09 08:18:55;;;;;;;17.05;7.90;;;3.00;99.90;;;;;;5065865;28;20161;-82
2021/12/09 08:21:25;;;;;;;11.25;7.57;;;3.00;99.90;;;;;;5047547;28;20176;-82
2021/12/09 08:23:53;;;;;;;18.58;8.55;;;3.00;99.90;;;;;;5046468;28;20629;-84
2021/12/09 08:26:20;;;;;;;13.27;7.38;;;3.00;99.90;;;;;;5028636;28;20177;-86
2021/12/09 08:28:46;;;;;;;14.18;8.32;;;3.00;99.90;;;;;;5018476;28;20238;-85
2021/12/09 08:31:12;;;;;;;18.70;9.03;;;;;;;;;;5014706;28;20182;-83
2021/12/09 08:33:39;;;;;;;16.27;7.70;;;3.20;99.90;;;;;;5023042;28;20455;-86
2021/12/09 08:36:04;;;;;;;14.05;7.85;;;3.30;99.90;;;;;;5026397;28;20650;-84
2021/12/09 08:38:30;;;;;;;17.03;9.13;;;;;;;;;;5044922;28;20189;-86
2021/12/09 08:40:56;;;;;;;20.83;9.90;;;3.20;99.90;;;;;;5043305;28;20236;-86
2021/12/09 08:43:22;;;;;;;14.70;8.33;;;3.30;99.90;;;;;;5030761;28;20467;-84
2021/12/09 08:45:49;;;;;;;22.02;10.80;;;3.30;99.90;;;;;;5026212;28;20185;-86
2021/12/09 08:48:15;;;;;;;18.02;10.52;;;3.30;99.90;;;;;;5025484;28;21228;-84
2021/12/09 08:50:44;;;;;;;18.40;9.90;;;3.40;99.90;;;;;;5031953;28;20275;-83
2021/12/09 08:53:15;;;;;;;16.05;9.52;;;3.40;99.90;;;;;;5020592;28;20956;-86
2021/12/09 08:55:41;;;;;;;24.65;12.75;;;3.50;99.90;;;;;;5047352;28;20201;-86
2021/12/09 08:58:08;;;;;;;19.15;11.25;;;3.60;99.90;;;;;;5040072;28;20656;-85
2021/12/09 09:00:35;;;;;;;29.88;12.65;;;3.70;99.90;;;;;;5023768;28;20195;-87
2021/12/09 09:03:03;;;;;;;19.25;11.48;;;3.80;99.90;;;;;;5038642;28;20208;-86
2021/12/09 09:05:29;;;;;;;22.45;10.15;;;3.80;99.90;;;;;;5024289;28;20238;-85
2021/12/09 09:07:56;;;;;;;19.10;9.25;;;4.00;99.90;;;;;;5035745;28;20681;-83
2021/12/09 09:10:24;;;;;;;26.42;11.25;;;4.10;99.90;;;;;;5017459;28;20260;-82
2021/12/09 09:12:53;;;;;;;26.73;10.20;;;3.90;99.90;;;;;;5034453;28;20271;-84
2021/12/09 09:15:21;;;;;;;13.95;8.20;;;4.00;99.90;;;;;;5020968;28;20628;-86
2021/12/09 09:17:47;;;;;;;17.38;9.43;;;3.90;99.90;;;;;;5018744;28;20185;-86
2021/12/09 09:20:15;;;;;;;18.55;10.55;;;3.90;99.90;;;;;;5046654;28;20177;-84
2021/12/09 09:22:41;;;;;;;18.45;9.55;;;3.90;99.90;;;;;;5025915;28;20239;-87
2021/12/09 09:25:10;;;;;;;43.20;22.15;;;3.90;99.90;;;;;;5020398;28;20193;-85
2021/12/09 09:27:36;;;;;;;20.58;9.00;;;3.90;99.90;;;;;;5039385;28;20189;-88
2021/12/09 09:30:05;;;;;;;19.50;8.57;;;3.90;99.90;;;;;;5023616;28;20188;-86
2021/12/09 09:32:31;;;;;;;16.17;9.18;;;3.90;99.90;;;;;;5017036;28;20459;-84
2021/12/09 09:34:56;;;;;;;16.43;9.23;;;3.80;99.90;;;;;;5040158;28;20794;-83
2021/12/09 09:37:22;;;;;;;13.67;8.97;;;;;;;;;;5020554;28;20177;-84
2021/12/09 09:39:49;;;;;;;16.10;10.07;;;4.00;99.90;;;;;;5037417;28;20189;-86
2021/12/09 09:44:48;;;;;;;16.23;9.33;;;3.90;99.90;;;;;;5042568;28;20283;-86
2021/12/09 09:47:16;;;;;;;20.30;12.05;;;4.00;99.90;;;;;;5015978;28;20987;-87
2021/12/09 09:49:43;;;;;;;11.52;7.40;;;4.10;99.90;;;;;;5039030;28;20549;-86
2021/12/09 09:52:10;;;;;;;10.35;6.45;;;4.10;99.90;;;;;;5024662;28;20304;-81
2021/12/09 09:54:40;;;;;;;15.80;9.77;;;3.80;99.90;;;;;;5050001;28;20599;-84
2021/12/09 09:57:07;;;;;;;14.95;9.82;;;3.80;99.90;;;;;;5044034;28;20200;-81
2021/12/09 09:59:33;;;;;;;15.88;6.88;;;3.80;99.90;;;;;;5020981;28;20204;-82
2021/12/09 10:01:59;;;;;;;20.90;9.02;;;3.80;99.90;;;;;;5015891;28;20779;-83
2021/12/09 10:04:32;;;;;;;10.60;7.73;;;;;;;;;;5019925;28;20209;-83
2021/12/09 10:06:59;;;;;;;21.50;12.38;;;3.70;99.90;;;;;;5036608;28;20184;-83
2021/12/09 10:09:25;;;;;;;25.40;11.73;;;3.80;99.90;;;;;;5039924;28;20195;-84
2021/12/09 10:11:51;;;;;;;15.55;9.65;;;3.70;99.90;;;;;;5019423;28;20207;-83
2021/12/09 10:14:20;;;;;;;15.80;10.17;;;3.50;99.90;;;;;;5036807;28;20212;-83
2021/12/09 10:16:59;;;;;;;18.90;10.05;;;3.40;99.90;;;;;;5030085;28;20558;-80
2021/12/09 10:19:24;;;;;;;23.67;11.68;;;3.50;99.90;;;;;;5041917;28;20276;-84
2021/12/09 10:22:07;;;;;;;21.87;13.13;;;3.40;99.90;;;;;;5026232;28;20642;-83
2021/12/09 10:24:33;;;;;;;22.48;11.13;;;3.40;99.90;;;;;;5041317;28;20835;-80
2021/12/09 10:26:59;;;;;;;18.30;8.60;;;3.40;99.90;;;;;;5023962;28;20185;-84
2021/12/09 10:29:31;;;;;;;19.40;10.25;;;3.30;99.90;;;;;;5038399;28;20452;-81
2021/12/09 10:32:00;;;;;;;17.58;11.80;;;3.30;99.90;;;;;;5032475;28;20181;-81
2021/12/09 10:34:36;;;;;;;22.13;11.07;;;3.40;99.90;;;;;;5045197;28;20697;-78
2021/12/09 10:37:27;;;;;;;17.42;11.32;;;3.50;99.90;;;;;;5025450;28;20215;-83
2021/12/09 10:39:59;;;;;;;25.98;10.77;;;3.50;99.90;;;;;;5028960;28;20177;-84
2021/12/09 10:42:43;;;;;;;14.20;8.00;;;3.70;99.90;;;;;;5027379;28;20297;-81
2021/12/09 10:45:20;;;;;;;19.50;10.38;;;3.80;99.90;;;;;;5028883;28;20185;-82
2021/12/09 10:47:55;;;;;;;18.35;9.32;;;3.80;99.90;;;;;;5043703;28;20177;-84
2021/12/09 10:53:03;;;;;;;17.25;9.32;;;4.10;99.90;;;;;;5054510;28;20619;-85
2021/12/09 10:55:33;;;;;;;14.15;8.65;;;4.00;99.90;;;;;;5018411;28;20219;-82
2021/12/09 10:58:00;;;;;;;15.25;9.20;;;4.20;99.90;;;;;;5028184;28;20173;-85
2021/12/09 11:00:34;;;;;;;15.40;7.63;;;4.30;99.90;;;;;;5034411;28;20181;-83
2021/12/09 11:03:08;;;;;;;18.58;8.98;;;4.30;99.90;;;;;;5030162;28;20258;-87
2021/12/09 11:05:40;;;;;;;13.75;8.38;;;4.10;99.90;;;;;;5020648;28;21000;-83
2021/12/09 11:08:13;;;;;;;20.52;9.02;;;4.10;99.90;;;;;;5032354;28;20193;-85
2021/12/09 11:10:46;;;;;;;22.33;9.23;;;4.30;99.90;;;;;;5038178;28;20251;-85
2021/12/09 11:13:12;;;;;;;16.67;7.90;;;4.10;99.90;;;;;;5023177;28;20299;-82
2021/12/09 11:15:46;;;;;;;17.60;8.63;;;3.90;99.90;;;;;;5041391;28;20450;-83
2021/12/09 11:18:45;;;;;;;20.20;8.32;;;3.90;99.90;;;;;;5019843;28;20772;-84
2021/12/09 11:21:21;;;;;;;15.57;8.45;;;3.90;99.90;;;;;;4981496;28;20185;-82
2021/12/09 11:23:58;;;;;;;16.25;8.93;;;4.00;99.90;;;;;;5030359;28;20209;-81
2021/12/09 11:26:44;;;;;;;13.85;9.35;;;4.00;99.90;;;;;;5071648;28;20277;-81
2021/12/09 11:29:18;;;;;;;14.00;7.75;;;4.10;99.90;;;;;;5069237;28;20196;-82
2021/12/09 11:31:59;;;;;;;14.70;8.57;;;4.10;99.90;;;;;;5024472;28;20181;-83
2021/12/09 11:34:32;;;;;;;17.10;9.18;;;4.30;99.90;;;;;;5020150;28;20213;-83
2021/12/09 11:37:05;;;;;;;18.27;8.15;;;4.30;99.90;;;;;;5037462;28;20205;-85
2021/12/09 11:39:35;;;;;;;14.75;7.80;;;4.00;99.90;;;;;;5023027;28;20730;-83
2021/12/09 11:42:16;;;;;;;18.63;8.13;;;3.70;99.90;;;;;;5040506;28;22431;-83
2021/12/09 11:44:43;;;;;;;18.90;8.45;;;3.60;99.90;;;;;;5041975;28;20197;-82
2021/12/09 11:47:09;;;;;;;16.13;8.98;;;3.70;99.90;;;;;;5036856;28;20190;-82
2021/12/09 11:49:35;;;;;;;21.70;6.50;;;3.70;99.90;;;;;;5023256;28;20246;-85
2021/12/09 11:52:00;;;;;;;13.57;5.53;;;3.60;99.90;;;;;;5029385;28;20185;-84
2021/12/09 11:54:26;;;;;;;10.70;6.57;;;6.90;99.90;;;;;;5023218;28;20459;-83
2021/12/09 11:57:33;;;;;;;15.00;7.80;;;3.50;99.90;;;;;;5040518;28;20260;-83
2021/12/09 12:11:28;;;;;;;13.15;5.97;;;3.40;99.90;;;;;;5038145;28;20227;-85
2021/12/09 12:14:03;;;;;;;17.52;6.72;;;3.40;99.90;;;;;;5041584;28;20201;-84
2021/12/09 12:19:35;;;;;;;14.88;6.43;;;3.40;99.90;;;;;;5037931;28;20185;-83
2021/12/09 12:28:31;;;;;;;19.02;6.70;;;3.30;99.90;;;;;;5021986;28;20290;-81
2021/12/09 12:42:42;;;;;;;15.68;6.88;;;3.30;99.90;;;;;;5036465;28;20936;-83
2021/12/09 12:45:36;;;;;;;14.68;4.60;;;3.20;99.90;;;;;;5030175;28;20201;-85
2021/12/09 12:48:32;;;;;;;9.98;4.63;;;3.20;99.90;;;;;;5029482;28;20189;-81
2021/12/09 12:53:53;;;;;;;9.15;4.97;;;3.20;99.90;;;;;;5031820;28;20270;-82
2021/12/09 12:56:23;;;;;;;13.25;5.05;;;3.20;99.90;;;;;;5017982;28;20228;-82
2021/12/09 12:59:08;;;;;;;10.82;5.57;;;3.30;99.90;;;;;;5035199;28;20989;-84
2021/12/09 13:01:39;;;;;;;8.10;5.38;;;3.40;99.90;;;;;;5040638;28;20181;-84
2021/12/09 13:04:25;;;;;;;20.73;5.22;;;3.80;99.90;;;;;;5040007;28;20622;-84
2021/12/09 13:06:57;;;;;;;5.93;3.60;;;3.50;99.90;;;;;;5023361;28;20279;-85
2021/12/09 13:09:40;;;;;;;5.40;3.80;;;3.40;99.90;;;;;;5029026;28;20185;-80
2021/12/09 13:12:10;;;;;;;17.98;4.63;;;3.40;99.90;;;;;;5015416;28;20184;-87
2021/12/09 13:15:20;;;;;;;15.73;7.60;;;3.40;99.90;;;;;;5038194;28;20380;-86
2021/12/09 13:17:57;;;;;;;9.35;4.78;;;3.60;99.90;;;;;;5012803;28;20181;-79
2021/12/09 13:20:27;;;;;;;8.95;4.57;;;3.60;99.90;;;;;;5009716;28;20181;-85
2021/12/09 13:23:22;;;;;;;11.93;5.28;;;3.80;99.90;;;;;;5033116;28;20185;-83
2021/12/09 13:26:13;;;;;;;19.15;5.90;;;3.80;99.90;;;;;;5032316;28;20977;-82
2021/12/09 13:28:52;;;;;;;12.02;4.68;;;4.00;99.90;;;;;;5010435;28;20192;-84
2021/12/09 13:31:48;;;;;;;5.82;3.70;;;4.10;99.90;;;;;;5027650;28;20179;-85
2021/12/09 13:34:30;;;;;;;9.77;4.40;;;4.00;99.90;;;;;;5024840;28;20335;-85
2021/12/09 13:45:46;;;;;;;7.25;2.95;;;3.80;99.90;;;;;;5032272;28;20263;-82
2021/12/09 13:45:56;;;;;;;8.85;4.03;;;3.70;99.90;;;;;;5036234;28;20199;-84